Time;durP1;ratioP1;P1;durP2;ratioP2;P2;SDS_P1;SDS_P2;PMS_P1;PMS_P2;Temp;Humidity;BMP_temperature;BMP_pressure;BME280_temperature;BME280_humidity;BME280_pressure;Samples;Min_cycle;Max_cycle;Signal;HPM_P1;HPM_P2
2022/11/16 00:01:05;;;;;;;14.63;10.77;;;2.70;99.90;2.50;99684.00;;;;4884968;28;113284;-63
2022/11/16 00:03:32;;;;;;;15.97;10.43;;;2.70;99.90;2.40;99678.00;;;;4884522;28;92844;-63
2022/11/16 00:06:01;;;;;;;13.40;10.37;;;2.70;99.90;2.50;99671.00;;;;4901697;28;93987;-63
2022/11/16 00:08:30;;;;;;;16.47;10.83;;;2.70;99.90;2.50;99669.00;;;;4880960;28;94145;-63
2022/11/16 00:11:07;;;;;;;21.00;10.60;;;2.70;99.90;2.40;99664.00;;;;4885444;28;92837;-63
2022/11/16 00:13:34;;;;;;;18.50;10.50;;;2.70;99.90;2.40;99662.00;;;;4886065;28;92808;-63
2022/11/16 00:16:00;;;;;;;20.00;10.80;;;2.70;99.90;2.40;99650.00;;;;4886758;28;110904;-63
2022/11/16 00:18:26;;;;;;;16.23;12.03;;;2.70;99.90;2.40;99662.00;;;;4881536;28;92735;-64
2022/11/16 00:20:52;;;;;;;12.90;10.37;;;2.70;99.90;2.40;99667.00;;;;4885285;28;92760;-63
2022/11/16 00:23:17;;;;;;;17.47;10.97;;;2.70;99.90;2.40;99661.00;;;;4883433;28;108449;-63
2022/11/16 00:25:43;;;;;;;13.07;9.33;;;2.70;99.90;2.40;99663.00;;;;4903406;28;93576;-63
2022/11/16 00:28:10;;;;;;;14.57;10.77;;;2.60;99.90;2.40;99665.00;;;;4880742;28;121855;-63
2022/11/16 00:30:36;;;;;;;14.60;9.63;;;2.60;99.90;2.40;99665.00;;;;4879985;28;108993;-63
2022/11/16 00:33:03;;;;;;;12.43;10.23;;;2.60;99.90;2.40;99674.00;;;;4881503;28;107795;-63
2022/11/16 00:35:28;;;;;;;13.70;10.23;;;2.60;99.90;2.40;99670.00;;;;4882213;28;116068;-63
2022/11/16 00:37:54;;;;;;;13.97;8.93;;;2.60;99.90;2.40;99675.00;;;;4879323;28;122655;-63
2022/11/16 00:40:20;;;;;;;20.40;10.63;;;2.60;99.90;2.40;99665.00;;;;4879093;28;112068;-62
2022/11/16 00:42:46;;;;;;;11.77;9.00;;;2.60;99.90;2.40;99666.00;;;;4891339;28;92964;-63
2022/11/16 00:45:12;;;;;;;15.47;9.67;;;2.70;99.90;2.40;99683.00;;;;4890246;28;123793;-63
2022/11/16 00:47:37;;;;;;;18.40;9.97;;;2.70;99.90;2.40;99680.00;;;;4878548;28;97517;-63
2022/11/16 00:50:04;;;;;;;14.30;10.40;;;2.60;99.90;2.40;99668.00;;;;4879465;28;95580;-63
2022/11/16 00:52:30;;;;;;;15.33;9.40;;;2.70;99.90;2.40;99670.00;;;;4882228;28;92722;-63
2022/11/16 00:54:55;;;;;;;15.10;9.60;;;2.70;99.90;2.40;99667.00;;;;4878916;28;124575;-63
2022/11/16 00:57:22;;;;;;;11.53;9.60;;;2.70;99.90;2.40;99669.00;;;;4880569;28;93712;-63
2022/11/16 00:59:47;;;;;;;12.67;9.53;;;2.80;99.90;2.40;99667.00;;;;4880767;28;93054;-63
2022/11/16 01:02:13;;;;;;;14.73;9.87;;;2.60;99.90;2.40;99658.00;;;;4884214;28;108652;-63
2022/11/16 01:04:39;;;;;;;9.17;8.10;;;2.60;99.90;2.30;99667.00;;;;4880987;28;122927;-64
2022/11/16 01:07:04;;;;;;;17.10;9.77;;;2.60;99.90;2.30;99653.00;;;;4883323;28;121491;-63
2022/11/16 01:09:30;;;;;;;10.97;8.17;;;2.60;99.90;2.30;99654.00;;;;4882967;28;110470;-63
2022/11/16 01:12:08;;;;;;;13.90;10.07;;;2.50;99.90;2.20;99646.00;;;;4885623;28;108781;-63
2022/11/16 01:14:40;;;;;;;15.77;8.57;;;2.50;99.90;2.10;99643.00;;;;4885068;28;93176;-63
2022/11/16 01:17:06;;;;;;;13.50;8.93;;;2.50;99.90;2.10;99638.00;;;;4887736;28;93454;-63
2022/11/16 01:19:33;;;;;;;14.67;9.53;;;2.40;99.90;2.10;99646.00;;;;4886633;28;108661;-63
2022/11/16 01:21:59;;;;;;;15.37;10.10;;;2.30;99.90;2.00;99634.00;;;;4887957;28;103077;-62
2022/11/16 01:24:25;;;;;;;16.23;9.77;;;2.30;99.90;2.00;99632.00;;;;4883927;28;93905;-63
2022/11/16 01:26:55;;;;;;;14.53;8.83;;;2.30;99.90;2.00;99639.00;;;;4885237;28;99845;-63
2022/11/16 01:29:24;;;;;;;15.03;10.23;;;2.30;99.90;1.90;99636.00;;;;4884206;28;92369;-63
2022/11/16 01:31:50;;;;;;;16.10;9.23;;;2.20;99.90;1.90;99627.00;;;;4879589;28;96087;-63
2022/11/16 01:34:16;;;;;;;18.83;8.93;;;2.20;99.90;1.90;99615.00;;;;4879000;28;122625;-63
2022/11/16 01:36:42;;;;;;;12.47;9.27;;;2.20;99.90;1.90;99621.00;;;;4878053;28;93864;-63
2022/11/16 01:39:10;;;;;;;15.83;9.27;;;2.20;99.90;1.90;99620.00;;;;4884734;28;110492;-63
2022/11/16 01:41:35;;;;;;;17.03;9.90;;;2.20;99.90;1.90;99614.00;;;;4880305;28;101461;-64
2022/11/16 01:44:31;;;;;;;18.97;10.53;;;2.20;99.90;1.90;99610.00;;;;4883040;28;123174;-63
2022/11/16 01:47:06;;;;;;;11.13;8.17;;;2.20;99.90;2.00;99610.00;;;;4888094;28;92950;-63
2022/11/16 01:49:35;;;;;;;14.53;11.07;;;2.30;99.90;2.00;99616.00;;;;4881308;28;93150;-63
2022/11/16 01:52:06;;;;;;;10.40;8.87;;;2.30;99.90;2.10;99619.00;;;;4877500;28;102166;-63
2022/11/16 01:54:37;;;;;;;18.83;10.77;;;2.30;99.90;2.10;99618.00;;;;4880937;28;118053;-64
2022/11/16 01:57:08;;;;;;;15.83;10.80;;;2.40;99.90;2.20;99618.00;;;;4887721;28;93059;-64
2022/11/16 01:59:34;;;;;;;16.17;10.33;;;2.50;99.90;2.20;99600.00;;;;4884230;28;93038;-64
2022/11/16 02:02:00;;;;;;;18.63;9.67;;;2.50;99.90;2.20;99605.00;;;;4879047;28;107914;-63
2022/11/16 02:04:26;;;;;;;16.20;8.57;;;2.50;99.90;2.30;99606.00;;;;4896569;28;94414;-64
2022/11/16 02:07:16;;;;;;;14.50;8.73;;;2.40;99.90;2.20;99597.00;;;;4883760;28;121892;-63
2022/11/16 02:09:57;;;;;;;15.63;10.50;;;2.50;99.90;2.20;99595.00;;;;4878551;28;103415;-64
2022/11/16 02:12:37;;;;;;;13.87;10.63;;;2.50;99.90;2.30;99605.00;;;;4881118;28;94771;-64
2022/11/16 02:15:27;;;;;;;17.53;10.50;;;2.50;99.90;2.30;99604.00;;;;4876572;28;94757;-64
2022/11/16 02:18:31;;;;;;;13.17;9.37;;;2.60;99.90;2.30;99598.00;;;;4881492;28;108204;-64
2022/11/16 02:21:12;;;;;;;19.43;9.87;;;2.50;99.90;2.30;99595.00;;;;4882627;28;92361;-64
2022/11/16 02:24:01;;;;;;;18.93;10.07;;;2.60;99.90;2.30;99593.00;;;;4884074;28;93746;-64
2022/11/16 02:27:10;;;;;;;12.03;9.57;;;2.60;99.90;2.30;99591.00;;;;4878838;28;93122;-64
2022/11/16 02:29:46;;;;;;;12.27;8.93;;;2.70;99.90;2.40;99594.00;;;;4892954;28;113528;-63
2022/11/16 02:32:20;;;;;;;14.20;8.23;;;2.60;99.90;2.40;99582.00;;;;4893382;28;92931;-63
2022/11/16 02:35:08;;;;;;;17.27;11.67;;;2.60;99.90;2.40;99594.00;;;;4881175;28;94828;-63
2022/11/16 02:37:42;;;;;;;18.77;11.23;;;2.70;99.90;2.40;99596.00;;;;4891639;28;93233;-64
2022/11/16 02:40:12;;;;;;;17.77;12.60;;;2.60;99.90;2.40;99584.00;;;;4878385;28;114954;-63
2022/11/16 02:42:48;;;;;;;17.67;9.70;;;2.60;99.90;2.40;99575.00;;;;4883642;28;104283;-63
2022/11/16 02:45:21;;;;;;;15.67;9.00;;;2.70;99.90;2.40;99569.00;;;;4882616;28;102779;-64
2022/11/16 02:47:50;;;;;;;19.30;10.37;;;2.70;99.90;2.40;99578.00;;;;4877109;28;108866;-63
2022/11/16 02:50:19;;;;;;;18.87;10.80;;;2.70;99.90;2.40;99585.00;;;;4880213;28;93176;-64
2022/11/16 02:52:45;;;;;;;13.90;9.80;;;3.10;99.90;2.40;99590.00;;;;4897533;28;92920;-63
2022/11/16 02:55:12;;;;;;;14.87;11.17;;;2.70;99.90;2.40;99586.00;;;;4881166;28;93681;-63
2022/11/16 02:57:59;;;;;;;17.93;9.37;;;3.10;99.90;2.40;99593.00;;;;4880074;28;93970;-63
2022/11/16 03:00:54;;;;;;;19.30;12.23;;;2.70;99.90;2.40;99585.00;;;;4882899;28;93183;-63
2022/11/16 03:03:42;;;;;;;15.67;11.20;;;2.70;99.90;2.40;99575.00;;;;4881851;28;92986;-63
2022/11/16 03:06:22;;;;;;;23.63;10.07;;;2.70;99.90;2.50;99577.00;;;;4880975;28;103751;-65
2022/11/16 03:09:07;;;;;;;11.93;8.93;;;2.70;99.90;2.50;99583.00;;;;4891779;28;113609;-64
2022/11/16 03:14:30;;;;;;;16.47;12.53;;;2.70;99.90;2.50;99571.00;;;;4876529;28;92106;-63
2022/11/16 03:16:58;;;;;;;19.53;11.13;;;2.70;99.90;2.40;99570.00;;;;4873288;28;93226;-65
2022/11/16 03:19:44;;;;;;;14.97;9.63;;;2.70;99.90;2.40;99569.00;;;;4881379;28;93498;-64
2022/11/16 03:22:44;;;;;;;17.40;10.87;;;2.70;99.90;2.40;99557.00;;;;4897168;28;93830;-64
2022/11/16 03:25:13;;;;;;;21.17;9.67;;;2.70;99.90;2.50;99550.00;;;;4891313;28;93608;-64
2022/11/16 03:27:46;;;;;;;19.73;10.90;;;2.70;99.90;2.50;99550.00;;;;4877209;28;104225;-64
2022/11/16 03:30:23;;;;;;;22.20;10.93;;;2.70;99.90;2.50;99550.00;;;;4895004;28;115065;-64
2022/11/16 03:33:14;;;;;;;20.47;13.97;;;2.80;99.90;2.60;99549.00;;;;4879058;28;93036;-64
2022/11/16 03:35:59;;;;;;;27.03;13.30;;;2.80;99.90;2.70;99548.00;;;;4873987;28;107470;-64
2022/11/16 03:38:27;;;;;;;22.63;11.70;;;3.00;99.90;2.90;99531.00;;;;4876294;28;93114;-64
2022/11/16 03:40:58;;;;;;;18.47;12.50;;;3.00;99.90;3.00;99536.00;;;;4875315;28;93231;-64
2022/11/16 03:43:26;;;;;;;36.20;12.27;;;3.20;99.90;3.10;99543.00;;;;4876483;28;110086;-64
2022/11/16 03:45:52;;;;;;;17.10;10.77;;;3.20;99.90;3.20;99546.00;;;;4873782;28;112975;-64
2022/11/16 03:48:18;;;;;;;13.77;10.20;;;3.40;99.90;3.30;99537.00;;;;4881737;28;93789;-64
2022/11/16 03:50:44;;;;;;;16.97;10.33;;;3.40;99.90;3.30;99540.00;;;;4889965;28;107910;-64
2022/11/16 03:53:10;;;;;;;15.57;10.53;;;3.50;99.90;3.40;99544.00;;;;4876163;28;122414;-65
2022/11/16 03:55:37;;;;;;;19.83;11.57;;;3.60;99.90;3.40;99539.00;;;;4879174;28;95742;-65
2022/11/16 03:58:03;;;;;;;24.37;12.83;;;3.60;99.90;3.50;99539.00;;;;4881558;28;92953;-64
2022/11/16 04:00:28;;;;;;;17.30;11.93;;;3.60;99.90;3.50;99540.00;;;;4877846;28;118005;-64
2022/11/16 04:02:54;;;;;;;22.80;10.97;;;3.60;99.90;3.60;99541.00;;;;4877784;28;122564;-65
2022/11/16 04:24:44;;;;;;;18.20;11.90;;;4.00;99.90;3.90;99539.00;;;;4880630;28;92788;-64
2022/11/16 04:29:59;;;;;;;22.67;11.40;;;4.00;99.90;3.90;99533.00;;;;4880668;28;92961;-63
2022/11/16 04:38:08;;;;;;;22.67;10.97;;;4.10;99.90;3.90;99530.00;;;;4867862;28;92952;-63
2022/11/16 04:40:33;;;;;;;18.63;12.20;;;4.10;99.90;4.00;99536.00;;;;4876814;28;109041;-64
2022/11/16 04:43:02;;;;;;;17.53;10.47;;;4.40;99.90;4.00;99541.00;;;;4881671;28;122043;-64
2022/11/16 04:48:17;;;;;;;21.60;10.53;;;4.20;99.90;4.00;99538.00;;;;4887013;28;93094;-64
2022/11/16 04:50:43;;;;;;;14.17;9.67;;;4.20;99.90;4.00;99549.00;;;;4878300;28;92985;-63
2022/11/16 04:53:09;;;;;;;20.37;10.37;;;4.20;99.90;4.00;99552.00;;;;4880603;28;93627;-64
2022/11/16 04:55:35;;;;;;;13.40;9.83;;;4.10;99.90;4.00;99535.00;;;;4883663;28;123792;-63
2022/11/16 04:58:01;;;;;;;14.67;8.03;;;4.10;99.90;4.00;99544.00;;;;4879662;28;112345;-64
2022/11/16 05:00:28;;;;;;;12.40;8.10;;;4.10;99.90;4.00;99538.00;;;;4879897;28;92962;-63
2022/11/16 05:02:54;;;;;;;13.83;8.10;;;4.20;99.90;4.00;99548.00;;;;4886915;28;93117;-63
2022/11/16 05:05:20;;;;;;;13.17;8.73;;;4.20;99.90;4.00;99534.00;;;;4882380;28;123302;-65
2022/11/16 05:07:45;;;;;;;15.27;7.60;;;4.20;99.90;4.00;99531.00;;;;4883719;28;92909;-63
2022/11/16 05:10:12;;;;;;;16.67;9.40;;;4.80;99.90;4.00;99538.00;;;;4880608;28;92992;-63
2022/11/16 05:12:38;;;;;;;13.43;8.10;;;4.20;99.90;4.00;99541.00;;;;4878267;28;92975;-63
2022/11/16 05:15:06;;;;;;;19.27;9.10;;;4.20;99.90;4.00;99540.00;;;;4881205;28;92992;-63
2022/11/16 05:17:32;;;;;;;13.37;9.90;;;4.20;99.90;4.00;99547.00;;;;4881062;28;92966;-64
2022/11/16 05:22:42;;;;;;;16.00;10.33;;;4.20;99.90;4.10;99539.00;;;;4879333;28;92675;-65
2022/11/16 05:25:09;;;;;;;12.87;8.43;;;4.30;99.90;4.10;99527.00;;;;4878992;28;107706;-65
2022/11/16 05:27:36;;;;;;;11.63;9.33;;;4.20;99.90;4.10;99520.00;;;;4883275;28;93125;-65
2022/11/16 05:30:03;;;;;;;15.90;8.73;;;4.30;99.90;4.10;99523.00;;;;4881809;28;94100;-66
2022/11/16 05:32:29;;;;;;;13.27;9.43;;;4.30;99.90;4.10;99522.00;;;;4877817;28;114656;-65
2022/11/16 05:34:55;;;;;;;12.70;8.87;;;4.70;99.90;4.10;99529.00;;;;4881131;28;103369;-65
2022/11/16 05:37:24;;;;;;;16.63;9.97;;;4.30;99.90;4.10;99526.00;;;;4883892;28;108857;-65
2022/11/16 05:39:50;;;;;;;13.93;10.57;;;4.30;99.90;4.10;99521.00;;;;4880593;28;92819;-65
2022/11/16 05:42:16;;;;;;;15.90;11.03;;;4.90;99.90;4.10;99520.00;;;;4876654;28;121015;-65
2022/11/16 05:44:41;;;;;;;14.87;9.23;;;4.30;99.90;4.10;99523.00;;;;4879045;28;122713;-65
2022/11/16 05:47:07;;;;;;;22.30;10.33;;;4.30;99.90;4.20;99530.00;;;;4882137;28;112729;-65
2022/11/16 05:49:33;;;;;;;19.70;11.80;;;4.80;99.90;4.20;99534.00;;;;4884471;28;101976;-65
2022/11/16 05:51:58;;;;;;;13.03;10.73;;;4.20;99.90;4.20;99538.00;;;;4884224;28;122186;-65
2022/11/16 05:54:25;;;;;;;16.03;10.80;;;4.40;99.90;4.20;99535.00;;;;4877670;28;95218;-66
2022/11/16 05:56:51;;;;;;;14.97;10.87;;;4.40;99.90;4.30;99537.00;;;;4882124;28;92744;-64
2022/11/16 05:59:19;;;;;;;18.67;12.03;;;4.60;99.90;4.30;99542.00;;;;4896966;28;101383;-65
2022/11/16 06:01:45;;;;;;;11.93;9.90;;;4.40;99.90;4.30;99543.00;;;;4879482;28;104041;-65
2022/11/16 06:04:12;;;;;;;15.00;9.73;;;4.40;99.90;4.30;99527.00;;;;4881870;28;99122;-65
2022/11/16 06:06:38;;;;;;;18.70;12.10;;;4.50;99.90;4.40;99537.00;;;;4884798;28;93013;-65
2022/11/16 06:09:04;;;;;;;16.47;9.87;;;4.60;99.90;4.40;99533.00;;;;4884019;28;92884;-65
2022/11/16 06:11:30;;;;;;;14.47;10.67;;;4.60;99.90;4.50;99531.00;;;;4880899;28;93416;-66
2022/11/16 06:13:56;;;;;;;15.73;11.37;;;4.60;99.90;4.50;99532.00;;;;4878264;28;113974;-66
2022/11/16 06:16:22;;;;;;;19.10;12.30;;;4.70;99.90;4.50;99525.00;;;;4888026;28;93020;-66
2022/11/16 06:18:48;;;;;;;21.30;12.57;;;4.60;99.90;4.50;99526.00;;;;4881636;28;108836;-66
2022/11/16 06:21:17;;;;;;;21.73;12.00;;;4.70;99.90;4.50;99535.00;;;;4879091;28;116053;-65
2022/11/16 06:23:43;;;;;;;22.30;12.63;;;4.70;99.90;4.60;99536.00;;;;4876732;28;97020;-65
2022/11/16 06:26:09;;;;;;;18.13;12.20;;;4.70;99.90;4.60;99535.00;;;;4879039;28;92907;-66
2022/11/16 06:28:35;;;;;;;14.27;11.17;;;4.70;99.90;4.60;99531.00;;;;4875768;28;107640;-65
2022/11/16 06:31:01;;;;;;;19.73;12.23;;;4.70;99.90;4.60;99532.00;;;;4876990;28;104985;-65
2022/11/16 06:33:27;;;;;;;14.00;11.10;;;4.80;99.90;4.60;99534.00;;;;4880000;28;116638;-66
2022/11/16 06:35:53;;;;;;;20.33;11.73;;;4.80;99.90;4.70;99538.00;;;;4880551;28;112649;-65
2022/11/16 06:38:19;;;;;;;19.53;10.60;;;4.80;99.90;4.70;99546.00;;;;4877078;28;107202;-65
2022/11/16 06:40:49;;;;;;;16.37;10.47;;;4.80;99.90;4.70;99541.00;;;;4879182;28;93855;-65
2022/11/16 06:43:15;;;;;;;16.03;11.23;;;4.90;99.90;4.80;99547.00;;;;4877523;28;94129;-65
2022/11/16 06:45:41;;;;;;;18.97;11.67;;;4.90;99.90;4.80;99555.00;;;;4877275;28;108389;-65
2022/11/16 06:48:07;;;;;;;18.60;13.23;;;5.00;99.90;4.90;99546.00;;;;4878480;28;92964;-65
2022/11/16 06:50:32;;;;;;;17.43;11.10;;;5.00;99.90;4.90;99551.00;;;;4877324;28;93272;-64
2022/11/16 06:53:01;;;;;;;19.13;12.70;;;5.20;99.90;4.90;99549.00;;;;4883603;28;93178;-65
2022/11/16 06:55:28;;;;;;;20.17;11.97;;;5.10;99.90;4.90;99547.00;;;;4881630;28;92787;-65
2022/11/16 06:57:53;;;;;;;18.90;13.23;;;5.10;99.90;5.00;99549.00;;;;4881737;28;93022;-65
2022/11/16 07:00:19;;;;;;;26.20;13.83;;;5.20;99.90;5.00;99546.00;;;;4880304;28;92229;-65
2022/11/16 07:02:45;;;;;;;20.37;12.23;;;5.10;99.90;5.00;99550.00;;;;4881529;28;121557;-66
2022/11/16 07:05:10;;;;;;;22.07;12.60;;;5.20;99.90;5.10;99551.00;;;;4880213;28;101736;-66
2022/11/16 07:07:36;;;;;;;19.27;13.20;;;5.20;99.90;5.10;99549.00;;;;4877263;28;108815;-65
2022/11/16 07:10:03;;;;;;;38.70;14.03;;;5.20;99.90;5.10;99553.00;;;;4880615;28;93995;-66
2022/11/16 07:12:29;;;;;;;21.17;14.87;;;5.20;99.90;5.10;99557.00;;;;4880439;28;116269;-66
2022/11/16 07:14:55;;;;;;;22.17;14.90;;;5.30;99.90;5.10;99551.00;;;;4878245;28;113521;-66
2022/11/16 07:17:20;;;;;;;26.30;13.67;;;5.50;99.90;5.10;99548.00;;;;4879064;28;108739;-65
2022/11/16 07:19:46;;;;;;;18.70;12.23;;;5.30;99.90;5.20;99539.00;;;;4882895;28;121665;-65
2022/11/16 07:22:11;;;;;;;14.73;11.77;;;5.30;99.90;5.20;99550.00;;;;4884818;28;122170;-65
2022/11/16 07:24:37;;;;;;;21.97;14.60;;;5.30;99.90;5.20;99552.00;;;;4883667;28;112446;-65
2022/11/16 07:27:03;;;;;;;29.83;14.97;;;5.40;99.90;5.30;99563.00;;;;4880274;28;108810;-65
2022/11/16 07:29:29;;;;;;;29.33;14.07;;;5.40;99.90;5.30;99555.00;;;;4882668;28;123248;-65
2022/11/16 07:31:55;;;;;;;21.90;14.80;;;5.40;99.90;5.30;99544.00;;;;4896140;28;94503;-66
2022/11/16 07:34:20;;;;;;;29.13;16.10;;;5.40;99.90;5.30;99547.00;;;;4876497;28;113003;-66
2022/11/16 07:36:46;;;;;;;21.67;15.00;;;5.50;99.90;5.40;99543.00;;;;4876529;28;92957;-66
2022/11/16 07:39:12;;;;;;;22.97;14.50;;;5.50;99.90;5.40;99557.00;;;;4880149;28;123404;-65
2022/11/16 07:41:37;;;;;;;21.63;15.10;;;5.50;99.90;5.40;99550.00;;;;4877168;28;121056;-66
2022/11/16 07:44:04;;;;;;;24.00;14.57;;;5.60;99.90;5.50;99540.00;;;;4875247;28;113041;-64
2022/11/16 07:46:30;;;;;;;26.47;15.73;;;5.60;99.90;5.50;99542.00;;;;4875322;28;93342;-65
2022/11/16 07:48:56;;;;;;;21.47;14.70;;;5.60;99.90;5.50;99533.00;;;;4874400;28;121181;-65
2022/11/16 07:51:22;;;;;;;25.47;15.20;;;5.60;99.90;5.60;99534.00;;;;4877019;28;93438;-65
2022/11/16 07:53:54;;;;;;;27.67;17.37;;;5.70;99.90;5.60;99539.00;;;;4877498;28;113297;-65
2022/11/16 07:56:20;;;;;;;30.13;15.77;;;5.70;99.90;5.60;99536.00;;;;4880033;28;93825;-64
2022/11/16 07:58:46;;;;;;;19.83;15.83;;;5.80;99.90;5.60;99529.00;;;;4879170;28;93354;-64
2022/11/16 08:01:15;;;;;;;25.93;16.97;;;5.80;99.90;5.70;99529.00;;;;4876126;28;107680;-64
2022/11/16 08:03:43;;;;;;;27.73;17.43;;;5.80;99.90;5.70;99522.00;;;;4878235;28;92931;-65
2022/11/16 08:06:29;;;;;;;27.63;17.73;;;5.80;99.90;5.70;99535.00;;;;4881714;28;92983;-66
2022/11/16 08:08:56;;;;;;;30.17;16.83;;;5.90;99.90;5.70;99528.00;;;;4901738;28;101618;-64
2022/11/16 08:11:22;;;;;;;26.73;16.90;;;5.90;99.90;5.70;99529.00;;;;4880355;28;94902;-64
2022/11/16 08:13:48;;;;;;;30.90;18.20;;;5.90;99.90;5.80;99524.00;;;;4882945;28;92098;-64
2022/11/16 08:16:17;;;;;;;31.60;18.20;;;5.90;99.90;5.80;99522.00;;;;4883789;28;102629;-65
2022/11/16 08:18:43;;;;;;;27.63;17.87;;;5.90;99.90;5.80;99543.00;;;;4880721;28;97919;-64
2022/11/16 08:21:13;;;;;;;22.87;15.23;;;6.20;99.90;5.80;99529.00;;;;4880739;28;93820;-66
2022/11/16 08:23:39;;;;;;;29.93;17.90;;;5.90;99.90;5.80;99525.00;;;;4885851;28;93847;-65
2022/11/16 08:26:09;;;;;;;25.47;16.93;;;5.90;99.90;5.80;99529.00;;;;4882768;28;93171;-65
2022/11/16 08:28:36;;;;;;;34.20;18.47;;;6.00;99.90;5.90;99528.00;;;;4882095;28;92870;-64
2022/11/16 08:31:18;;;;;;;27.47;19.90;;;6.00;99.90;5.90;99529.00;;;;4879710;28;93930;-64
2022/11/16 08:33:43;;;;;;;26.80;18.13;;;6.40;99.90;5.90;99529.00;;;;4883212;28;92650;-65
2022/11/16 08:36:15;;;;;;;32.43;17.67;;;6.00;99.90;6.00;99527.00;;;;4880905;28;108812;-64
2022/11/16 08:38:45;;;;;;;29.17;19.10;;;6.10;99.90;5.90;99517.00;;;;4882354;28;93621;-64
2022/11/16 08:41:11;;;;;;;29.47;18.07;;;6.10;99.90;6.00;99522.00;;;;4882474;28;117473;-65
2022/11/16 08:43:40;;;;;;;31.67;18.93;;;6.10;99.90;6.00;99519.00;;;;4884934;28;93192;-65
2022/11/16 08:46:08;;;;;;;36.87;19.67;;;6.20;99.90;6.00;99514.00;;;;4883585;28;94203;-66
2022/11/16 08:48:35;;;;;;;34.47;20.50;;;6.10;99.90;6.00;99508.00;;;;4879820;28;93327;-65
2022/11/16 08:51:06;;;;;;;35.33;19.20;;;6.10;99.90;6.00;99510.00;;;;4879400;28;94311;-64
2022/11/16 08:53:32;;;;;;;32.10;17.80;;;6.10;99.90;6.00;99513.00;;;;4884920;28;93091;-64
2022/11/16 08:56:07;;;;;;;36.77;18.63;;;6.10;99.90;6.00;99498.00;;;;4884458;28;108259;-65
2022/11/16 08:58:34;;;;;;;38.60;20.43;;;6.10;99.90;6.10;99504.00;;;;4882018;28;93188;-64
2022/11/16 09:01:14;;;;;;;33.73;20.80;;;6.20;99.90;6.10;99499.00;;;;4881172;28;94001;-64
2022/11/16 09:03:41;;;;;;;33.27;20.07;;;6.20;99.90;6.10;99500.00;;;;4882350;28;97117;-64
2022/11/16 09:06:08;;;;;;;37.23;22.57;;;6.20;99.90;6.20;99506.00;;;;4883847;28;92851;-65
2022/11/16 09:08:36;;;;;;;32.70;19.57;;;6.90;99.90;6.20;99510.00;;;;4877596;28;116011;-64
2022/11/16 09:11:07;;;;;;;34.03;20.27;;;6.30;99.90;6.20;99508.00;;;;4881097;28;94751;-64
2022/11/16 09:13:32;;;;;;;32.70;18.73;;;6.30;99.90;6.30;99518.00;;;;4881366;28;92912;-65
2022/11/16 09:15:59;;;;;;;28.83;19.67;;;6.40;99.90;6.30;99512.00;;;;4881488;28;107578;-64
2022/11/16 09:18:25;;;;;;;44.60;21.60;;;6.40;99.90;6.30;99518.00;;;;4880083;28;95095;-64
2022/11/16 09:20:51;;;;;;;36.50;19.57;;;6.40;99.90;6.40;99517.00;;;;4885570;28;93929;-64
2022/11/16 09:23:17;;;;;;;39.33;20.07;;;6.40;99.90;6.40;99503.00;;;;4880561;28;112492;-63
2022/11/16 09:25:47;;;;;;;36.83;20.97;;;6.90;99.90;6.40;99518.00;;;;4881380;28;104333;-64
2022/11/16 09:28:17;;;;;;;28.47;18.70;;;6.50;99.90;6.50;99514.00;;;;4883124;28;93150;-64
2022/11/16 09:30:45;;;;;;;34.13;19.63;;;6.50;99.90;6.50;99500.00;;;;4883239;28;93273;-64
2022/11/16 09:33:12;;;;;;;35.23;19.87;;;6.60;99.90;6.50;99511.00;;;;4880292;28;92783;-64
2022/11/16 09:35:38;;;;;;;24.77;18.00;;;6.60;99.90;6.50;99505.00;;;;4881679;28;94015;-64
2022/11/16 09:38:04;;;;;;;36.63;21.13;;;6.60;99.90;6.50;99503.00;;;;4881120;28;93016;-63
2022/11/16 09:40:38;;;;;;;37.40;20.70;;;6.60;99.90;6.60;99508.00;;;;4882652;28;93013;-63
2022/11/16 09:43:52;;;;;;;33.17;21.37;;;6.70;99.90;6.60;99511.00;;;;4878670;28;92964;-63
2022/11/16 09:46:33;;;;;;;40.13;21.93;;;6.70;99.90;6.70;99509.00;;;;4883123;28;93235;-63
2022/11/16 09:49:06;;;;;;;36.67;18.60;;;6.80;99.90;6.70;99506.00;;;;4898906;28;92942;-63
2022/11/16 09:51:33;;;;;;;34.90;19.40;;;6.80;99.90;6.80;99509.00;;;;4880375;28;93233;-63
2022/11/16 09:54:19;;;;;;;36.27;20.67;;;7.20;99.90;6.80;99496.00;;;;4881224;28;114111;-63
2022/11/16 09:56:48;;;;;;;36.40;22.17;;;7.30;99.90;6.80;99505.00;;;;4882111;28;93033;-64
2022/11/16 09:59:23;;;;;;;35.67;20.10;;;6.80;99.90;6.80;99508.00;;;;4882175;28;115140;-63
2022/11/16 10:02:15;;;;;;;36.30;20.63;;;6.90;99.90;6.80;99497.00;;;;4882166;28;111269;-63
2022/11/16 10:05:00;;;;;;;37.27;20.53;;;6.90;99.90;6.80;99493.00;;;;4887199;28;92948;-64
2022/11/16 10:07:36;;;;;;;41.90;21.57;;;6.90;99.90;6.80;99495.00;;;;4882056;28;100437;-63
2022/11/16 10:10:02;;;;;;;34.37;21.13;;;6.90;99.90;6.80;99494.00;;;;4881384;28;116106;-63
2022/11/16 10:12:45;;;;;;;38.80;19.87;;;6.90;99.90;6.70;99489.00;;;;4878547;28;114795;-64
2022/11/16 10:15:37;;;;;;;39.53;20.80;;;6.80;99.90;6.70;99493.00;;;;4897280;28;92861;-63
2022/11/16 10:18:41;;;;;;;30.80;19.10;;;6.90;99.90;6.70;99493.00;;;;4890826;28;92979;-64
2022/11/16 10:21:33;;;;;;;46.87;22.03;;;6.90;99.90;6.70;99478.00;;;;4883180;28;101483;-64
2022/11/16 10:24:25;;;;;;;31.47;20.73;;;6.80;99.90;6.70;99478.00;;;;4878938;28;93052;-63
2022/11/16 10:27:29;;;;;;;32.90;19.03;;;6.90;99.90;6.70;99477.00;;;;4880959;28;93003;-64
2022/11/16 10:30:15;;;;;;;31.20;21.27;;;6.90;99.90;6.70;99474.00;;;;4875764;28;94034;-64
2022/11/16 10:33:06;;;;;;;38.07;20.70;;;6.80;99.90;6.70;99470.00;;;;4878604;28;93299;-63
2022/11/16 10:35:38;;;;;;;44.47;23.30;;;6.90;99.90;6.70;99463.00;;;;4873293;28;94355;-63
2022/11/16 10:38:17;;;;;;;37.57;21.17;;;6.80;99.90;6.70;99461.00;;;;4878164;28;92770;-63
2022/11/16 10:40:49;;;;;;;28.20;19.50;;;6.80;99.90;6.70;99457.00;;;;4877915;28;93036;-62
2022/11/16 10:43:19;;;;;;;34.27;19.33;;;6.80;99.90;6.70;99452.00;;;;4892794;28;93568;-62
2022/11/16 10:46:16;;;;;;;29.57;18.87;;;6.80;99.90;6.70;99457.00;;;;4878252;28;115106;-63
2022/11/16 10:49:06;;;;;;;32.50;19.73;;;6.80;99.90;6.70;99452.00;;;;4880128;28;92181;-62
2022/11/16 10:51:32;;;;;;;35.50;19.67;;;6.80;99.90;6.70;99447.00;;;;4879468;28;92871;-63
2022/11/16 10:53:58;;;;;;;37.27;20.77;;;6.80;99.90;6.70;99453.00;;;;4883220;28;123395;-63
2022/11/16 10:56:31;;;;;;;32.60;18.60;;;6.90;99.90;6.70;99455.00;;;;4877759;28;94233;-63
2022/11/16 10:59:00;;;;;;;32.97;18.17;;;6.80;99.90;6.70;99446.00;;;;4896695;28;92872;-63
2022/11/16 11:01:37;;;;;;;30.77;18.23;;;7.40;99.90;6.70;99446.00;;;;4881023;28;92934;-63
2022/11/16 11:04:13;;;;;;;23.43;16.77;;;6.80;99.90;6.60;99450.00;;;;4881811;28;93084;-62
2022/11/16 11:06:39;;;;;;;37.57;17.03;;;6.80;99.90;6.60;99443.00;;;;4877381;28;93981;-65
2022/11/16 11:09:25;;;;;;;39.83;17.97;;;6.70;99.90;6.60;99433.00;;;;4879902;28;93090;-62
2022/11/16 11:15:25;;;;;;;34.20;16.33;;;6.80;99.90;6.60;99418.00;;;;4883232;28;94161;-62
2022/11/16 11:18:11;;;;;;;23.50;16.27;;;6.70;99.90;6.60;99425.00;;;;4882534;28;92822;-63
2022/11/16 11:20:40;;;;;;;24.07;14.97;;;6.80;99.90;6.60;99423.00;;;;4880396;28;94448;-63
2022/11/16 11:23:16;;;;;;;32.07;19.43;;;6.70;99.90;6.60;99434.00;;;;4880393;28;94148;-62
2022/11/16 11:25:55;;;;;;;24.03;15.47;;;7.10;99.90;6.70;99432.00;;;;4879328;28;93713;-64
2022/11/16 11:28:27;;;;;;;34.50;16.87;;;6.70;99.90;6.70;99426.00;;;;4892849;28;92914;-63
2022/11/16 11:31:07;;;;;;;25.93;15.57;;;6.70;99.90;6.70;99423.00;;;;4893831;28;92927;-63
2022/11/16 11:34:22;;;;;;;25.33;14.83;;;6.80;99.90;6.70;99438.00;;;;4895033;28;102053;-62
2022/11/16 11:37:03;;;;;;;25.90;15.93;;;6.80;99.90;6.70;99429.00;;;;4859893;28;93114;-62
2022/11/16 11:39:35;;;;;;;23.00;14.40;;;6.80;99.90;6.70;99429.00;;;;4884954;28;93153;-62
2022/11/16 11:42:12;;;;;;;25.50;13.73;;;6.80;99.90;6.70;99423.00;;;;4880760;28;92307;-62
2022/11/16 11:45:00;;;;;;;21.47;14.67;;;6.80;99.90;6.70;99431.00;;;;4875819;28;93959;-62
2022/11/16 11:48:01;;;;;;;20.77;13.50;;;6.80;99.90;6.70;99421.00;;;;4882304;28;117666;-62
2022/11/16 11:50:54;;;;;;;25.30;13.73;;;6.80;99.90;6.60;99427.00;;;;4880569;28;93837;-61